PORT of ISKENDERUN

Country: Turkey Country: Turkey (TR)
Latitude / Longitude: 36.68401° / 36.17972° Show on Map Show on Map
Local Time:  UTC +3
UN/LOCODE: TRISK
Vessels in Port: 56
Expected Arrivals: 21

Recent Arrivals & Departures


Vessel Name
Arrival (UTC)
Arrival (LT)
Departure (UTC)
Departure (LT)
Vessel Type: Cargo Vessels  BIDEFORD 2014-09-22 09:16:00 2014-09-22 12:16:00
Vessel Type: Cargo Vessels  BIDEFORD 2014-09-20 19:29:00 2014-09-20 22:29:00 2014-09-22 09:04:00 2014-09-22 12:04:00
Vessel Type: Cargo Vessels  VASILIY BOZHENKO 2014-09-22 06:19:00 2014-09-22 09:19:00
Vessel Type: Cargo Vessels  MSC GIORGIA 2014-09-21 06:20:00 2014-09-21 09:20:00 2014-09-22 06:02:00 2014-09-22 09:02:00
Vessel Type: Cargo Vessels  RUBIN PHOENIX 2014-09-22 05:12:00 2014-09-22 08:12:00
Vessel Type: Fishing  ERSIN 2014-09-21 16:40:00 2014-09-21 19:40:00 2014-09-22 04:18:00 2014-09-22 07:18:00
Vessel Type: Passenger Vessels  CENK Y 2014-09-22 03:34:00 2014-09-22 06:34:00
Vessel Type: Fishing  SEVDA SELI 2014-09-22 02:42:00 2014-09-22 05:42:00
Vessel Type: Fishing  BASARAN 2014-09-21 16:45:00 2014-09-21 19:45:00 2014-09-22 02:05:00 2014-09-22 05:05:00
Vessel Type: Fishing  YUSUF TUGCU-3 2014-09-21 16:11:00 2014-09-21 19:11:00 2014-09-22 01:53:00 2014-09-22 04:53:00

Expected Arrivals


Vessel Name
Scheduled Arrival (UTC)
Scheduled Arrival (LT)
Estimated Arrival (UTC)
Estimated Arrival (LT)
Vessel Type: Cargo Vessels  AMAL O 2014-09-21 23:00:00 2014-09-22 02:00:00
Vessel Type: Cargo Vessels  C FLOW 2014-09-22 15:30:00 2014-09-22 18:30:00 2014-09-22 12:39:00 2014-09-22 15:39:00
Vessel Type: Cargo Vessels  SORMOVSKIY 36 2014-09-23 00:00:00 2014-09-23 03:00:00
Vessel Type: Cargo Vessels  INCE EVRENYE 2014-09-23 01:00:00 2014-09-23 04:00:00 2014-09-22 20:46:00 2014-09-22 23:46:00
Vessel Type: Cargo Vessels  ALTAIR 2014-09-23 12:00:00 2014-09-23 15:00:00 2014-09-23 11:03:00 2014-09-23 14:03:00
Vessel Type: Cargo Vessels  AYKOP EMICE 2014-09-23 12:00:00 2014-09-23 15:00:00 2014-09-24 03:59:00 2014-09-24 06:59:00
Vessel Type: Cargo Vessels  LONG GLORY 2014-09-23 17:00:00 2014-09-23 20:00:00 2014-09-24 09:37:00 2014-09-24 12:37:00
Vessel Type: Cargo Vessels  GLOBAL ORIOLE 2014-09-23 20:00:00 2014-09-23 23:00:00 2014-09-23 13:45:00 2014-09-23 16:45:00
Vessel Type: Cargo Vessels  BBC ATLANTIC 2014-09-24 03:00:00 2014-09-24 06:00:00 2014-09-24 09:40:00 2014-09-24 12:40:00
Vessel Type: Tankers  CHEM NORMA 2014-09-24 12:00:00 2014-09-24 15:00:00 2014-09-23 20:43:00 2014-09-23 23:43:00

Wind Forecast


    
Time (UTC)
Speed
Direction
Temperature
2014-09-22 09:00:00 6 knots 253° 23°C
2014-09-22 12:00:00 13 knots 232° 25°C
2014-09-22 15:00:00 14 knots 232° 26°C
2014-09-22 18:00:00 10 knots 236° 25°C
2014-09-22 21:00:00 6 knots 246° 25°C
2014-09-23 00:00:00 2 knots 328° 25°C
2014-09-23 03:00:00 3 knots 347° 24°C
2014-09-23 06:00:00 3 knots 338° 24°C
2014-09-23 09:00:00 5 knots 244° 24°C
2014-09-23 12:00:00 11 knots 238° 25°C
2014-09-23 15:00:00 12 knots 233° 26°C
2014-09-23 18:00:00 11 knots 215° 26°C
2014-09-23 21:00:00 13 knots 202° 26°C
2014-09-24 00:00:00 17 knots 207° 26°C
2014-09-24 03:00:00 20 knots 212° 26°C
2014-09-24 06:00:00 19 knots 227° 26°C
2014-09-24 09:00:00 14 knots 250° 26°C